Aérodrome :
LOGIN :

S'inscrire | Disclaimer

   EN    FR    IT 

 










Légende :    VFR   VFR Marginal   IFR   IFR Intensif   IFR Très Intensif
Visi : 
Plafond : 
>= 8 km
>= 3000ft
5 à 8 km
1000 à 3000 ft
1500m à 5 km
500 à 1000 ft
800 à 1500m
200 à 500 ft
< 800m
< 200 ft
Symboles :   Orages  Brouillard  Fortes neiges  Fortes précipitations  Vent > 20 kt
SIGMETs :   Divers  Orages  Givrage  Turbulence  Onde Orograph.  Cendres Volcan.







- Altitude de l'aérodrome : 16 ft
- Code IATA : SDR


LEXJ - Santander Cantabria

DERNIER METAR :
  • 130400Z AUTO 19002KT 4900 1900E BR OVC060 11/11 Q1025

METARs EXPIRÉS :
  • 130330Z AUTO 00000KT 1900 0350W R29/1400U R11/0900N BR BCFG BKN060 10/10 Q1025
  • 130300Z AUTO 13001KT 0900 0350E R29/0900U R11/1500D FG VV/// 10/10 Q1025
  • 130230Z AUTO 00000KT 2400 0250E R29/0900U BR BCFG NSC 10/10 Q1025
  • 130200Z AUTO 12001KT 7000 2200E FEW060 11/11 Q1025
  • 130130Z AUTO 00000KT 7000 2900E NCD 11/11 Q1024

TAF TAF LEXJ
Valide du 13 à 03h jusqu'au 14 à 03h UTC


130200Z 1303/1403 VRB05KT 9999 SCT015 BKN030 TX17/1314Z TN08/1305Z
PROB40
TEMPO 1303/1310 3000 BR
PROB30
TEMPO 1303/1308 1500 BCFG BKN010
TEMPO 1312/1318 08010KT
Pas de NOTAMs connus pour ce terrain.
1 SIGMET publié pour la FIR Madrid (LECM) :
 
Turbulence forte
LECM SIGMET 1 VALID 130300/130600 LEVA
LECM MADRID UIR SEV TURB FCST WI N41 W00652 - N4417 W00408 - N4351 W00241 - N3709 W00721 - N4058 W00653 - N41 W00652 FL270/330 STNR WKN=



MET'MAP, la Météo Aéronautique d'un coup d'oeil ! - Copyright ORBIFLY Décembre 2007 - Disclaimer

ORBIFLY MET'MAP TEAM :

Programmation & Développement : Alexandra Zaïnal
Conception & Développement : Baudouin d'Aumeries
Co-Programmation & Développement : Marc-Olivier Méhu
Soutien technique & logistique : Manuel Goepfert

Contact : metmap@orbifly.com




SOURCES & CREDITS :

   NOAA